Time;durP1;ratioP1;P1;durP2;ratioP2;P2;SDS_P1;SDS_P2;PMS_P1;PMS_P2;Temp;Humidity;BMP_temperature;BMP_pressure;BME280_temperature;BME280_humidity;BME280_pressure;Samples;Min_cycle;Max_cycle;Signal;HPM_P1;HPM_P2
2021/10/08 00:01:09;;;;;;;12.77;6.97;;;9.50;76.40;;;;;;5071210;28;20044;-89
2021/10/08 00:03:36;;;;;;;10.32;6.82;;;9.40;76.40;;;;;;5072245;28;20045;-91
2021/10/08 00:06:03;;;;;;;9.43;6.57;;;9.40;76.40;;;;;;5070845;28;20044;-91
2021/10/08 00:08:30;;;;;;;8.77;6.03;;;9.40;76.40;;;;;;5072075;28;20540;-90
2021/10/08 00:10:57;;;;;;;11.88;6.85;;;9.40;76.40;;;;;;5072506;28;20153;-89
2021/10/08 00:13:24;;;;;;;10.38;6.93;;;9.40;76.50;;;;;;5071775;28;20428;-91
2021/10/08 00:15:51;;;;;;;12.07;6.38;;;9.40;76.40;;;;;;5072164;28;20043;-90
2021/10/08 00:18:18;;;;;;;11.85;7.00;;;9.30;76.40;;;;;;5070303;28;20041;-91
2021/10/08 00:20:45;;;;;;;11.93;7.03;;;9.30;76.50;;;;;;5071837;28;20435;-90
2021/10/08 00:23:12;;;;;;;10.98;6.70;;;9.30;76.50;;;;;;5071652;28;20060;-89
2021/10/08 00:25:39;;;;;;;9.77;7.18;;;9.30;76.50;;;;;;5071816;28;20056;-90
2021/10/08 00:28:06;;;;;;;12.80;7.10;;;9.20;76.50;;;;;;5070086;28;20049;-89
2021/10/08 00:30:34;;;;;;;9.50;6.22;;;9.20;76.60;;;;;;5071736;28;20059;-88
2021/10/08 00:33:02;;;;;;;13.88;7.32;;;9.20;76.70;;;;;;5070328;28;20043;-90
2021/10/08 00:35:29;;;;;;;10.80;6.82;;;9.20;76.70;;;;;;5071541;28;20052;-91
2021/10/08 00:37:56;;;;;;;11.50;6.78;;;9.20;76.80;;;;;;5071687;28;20086;-91
2021/10/08 00:40:24;;;;;;;12.38;7.30;;;9.20;76.70;;;;;;5071519;28;20124;-88
2021/10/08 00:42:51;;;;;;;11.90;6.95;;;9.10;76.70;;;;;;5071304;28;20049;-90
2021/10/08 00:45:18;;;;;;;9.27;6.53;;;9.10;76.60;;;;;;5069956;28;20045;-90
2021/10/08 00:48:07;;;;;;;11.27;6.50;;;9.10;76.50;;;;;;5071548;28;20068;-89
2021/10/08 00:50:39;;;;;;;10.35;7.10;;;9.10;76.60;;;;;;5085101;28;20063;-90
2021/10/08 00:53:06;;;;;;;9.77;6.97;;;9.00;76.70;;;;;;5071037;28;20052;-89
2021/10/08 00:55:35;;;;;;;9.73;6.97;;;9.00;76.70;;;;;;5070911;28;20044;-88
2021/10/08 00:58:03;;;;;;;8.60;6.43;;;9.00;76.70;;;;;;5070156;28;20055;-88
2021/10/08 01:00:30;;;;;;;10.93;6.80;;;9.00;76.80;;;;;;5069780;28;20412;-89
2021/10/08 01:02:57;;;;;;;10.07;6.68;;;8.90;76.80;;;;;;5071237;28;20056;-90
2021/10/08 01:05:24;;;;;;;13.05;6.85;;;8.90;76.90;;;;;;5071065;28;20052;-91
2021/10/08 01:07:51;;;;;;;12.10;6.60;;;8.90;76.90;;;;;;5068750;28;20063;-90
2021/10/08 01:10:18;;;;;;;8.93;6.55;;;8.90;76.90;;;;;;5069693;28;20037;-89
2021/10/08 01:12:45;;;;;;;10.68;6.80;;;8.90;76.80;;;;;;5067703;28;20660;-89
2021/10/08 01:15:13;;;;;;;9.73;6.53;;;8.90;76.80;;;;;;5069708;28;20413;-90
2021/10/08 01:17:40;;;;;;;12.50;7.25;;;8.90;76.70;;;;;;5070856;28;20045;-89
2021/10/08 01:20:09;;;;;;;11.95;6.60;;;8.80;76.70;;;;;;5071234;28;20048;-90
2021/10/08 01:22:37;;;;;;;10.93;7.18;;;8.80;76.70;;;;;;5066439;28;20049;-90
2021/10/08 01:25:05;;;;;;;12.18;7.63;;;8.80;76.80;;;;;;5064012;28;20052;-88
2021/10/08 01:27:32;;;;;;;8.85;6.88;;;8.80;76.90;;;;;;5070683;28;20062;-89
2021/10/08 01:30:02;;;;;;;8.98;6.32;;;8.80;76.90;;;;;;5070785;28;20044;-89
2021/10/08 01:32:30;;;;;;;12.80;7.45;;;8.70;77.00;;;;;;5070973;28;20494;-89
2021/10/08 01:34:57;;;;;;;11.82;7.47;;;8.70;76.90;;;;;;5071094;28;20386;-90
2021/10/08 01:37:24;;;;;;;14.82;7.07;;;8.70;76.90;;;;;;5070177;28;20051;-88
2021/10/08 01:39:52;;;;;;;10.30;6.32;;;8.70;76.80;;;;;;5070482;28;20048;-89
2021/10/08 01:42:19;;;;;;;15.23;7.68;;;8.70;76.80;;;;;;5070506;28;20047;-88
2021/10/08 01:44:46;;;;;;;14.55;6.82;;;8.70;76.90;;;;;;5070898;28;20557;-89
2021/10/08 01:47:13;;;;;;;9.90;6.57;;;8.60;76.90;;;;;;5069685;28;20059;-89
2021/10/08 01:49:40;;;;;;;13.50;7.07;;;8.60;76.80;;;;;;5070271;28;20053;-88
2021/10/08 01:52:08;;;;;;;8.82;6.70;;;8.60;76.90;;;;;;5066258;28;20516;-89
2021/10/08 01:54:34;;;;;;;9.95;7.55;;;8.60;76.90;;;;;;5069384;28;20048;-89
2021/10/08 01:57:02;;;;;;;9.80;6.55;;;8.50;76.90;;;;;;5070743;28;20064;-90
2021/10/08 01:59:29;;;;;;;12.00;7.10;;;8.50;76.80;;;;;;5069282;28;20060;-88
2021/10/08 02:01:56;;;;;;;9.32;7.38;;;8.50;76.90;;;;;;5070981;28;20049;-89
2021/10/08 02:04:23;;;;;;;9.18;6.90;;;8.50;76.90;;;;;;5069136;28;20052;-88
2021/10/08 02:06:50;;;;;;;12.88;7.72;;;8.50;76.90;;;;;;5072850;28;20421;-89
2021/10/08 02:09:17;;;;;;;12.27;7.85;;;8.40;76.90;;;;;;5074324;28;20497;-90
2021/10/08 02:11:44;;;;;;;9.15;7.35;;;8.40;77.00;;;;;;5073114;28;20063;-89
2021/10/08 02:14:12;;;;;;;12.30;8.52;;;8.40;77.00;;;;;;5073569;28;20049;-90
2021/10/08 02:16:39;;;;;;;14.10;7.30;;;8.40;77.10;;;;;;5073357;28;20044;-90
2021/10/08 02:19:06;;;;;;;10.55;7.07;;;8.40;77.20;;;;;;5072384;28;20052;-89
2021/10/08 02:21:34;;;;;;;11.55;7.50;;;8.40;77.30;;;;;;5074201;28;20059;-88
2021/10/08 02:24:01;;;;;;;11.48;6.63;;;8.40;77.40;;;;;;5074174;28;20100;-90
2021/10/08 02:26:28;;;;;;;9.13;7.13;;;8.40;77.30;;;;;;5074530;28;20601;-90
2021/10/08 02:28:55;;;;;;;10.73;7.10;;;8.40;77.30;;;;;;5072925;28;20136;-91
2021/10/08 02:31:22;;;;;;;10.15;6.90;;;8.30;77.20;;;;;;5072845;28;20041;-90
2021/10/08 02:33:49;;;;;;;12.02;7.30;;;8.30;77.20;;;;;;5072820;28;20508;-90
2021/10/08 02:36:16;;;;;;;10.55;7.80;;;8.30;77.20;;;;;;5074137;28;20071;-91
2021/10/08 02:38:43;;;;;;;11.73;7.25;;;8.30;77.30;;;;;;5073008;28;20051;-89
2021/10/08 02:41:11;;;;;;;11.68;7.47;;;8.30;77.20;;;;;;5074310;28;20060;-91
2021/10/08 02:43:38;;;;;;;9.45;7.25;;;8.20;77.20;;;;;;5072547;28;20056;-90
2021/10/08 02:46:06;;;;;;;9.30;7.32;;;8.20;77.20;;;;;;5072666;28;20044;-89
2021/10/08 02:48:35;;;;;;;9.80;7.25;;;8.20;77.30;;;;;;5070918;28;20056;-89
2021/10/08 02:51:04;;;;;;;9.68;7.80;;;8.20;77.30;;;;;;5074100;28;20044;-89
2021/10/08 02:53:31;;;;;;;9.15;7.20;;;8.20;77.20;;;;;;5073776;28;20052;-92
2021/10/08 02:55:58;;;;;;;9.60;7.28;;;8.20;77.20;;;;;;5072650;28;20045;-89
2021/10/08 02:58:26;;;;;;;11.93;7.38;;;8.20;77.20;;;;;;5072032;28;20572;-89
2021/10/08 03:00:53;;;;;;;10.00;6.82;;;8.10;77.20;;;;;;5071045;28;20049;-89
2021/10/08 03:03:20;;;;;;;13.55;6.95;;;8.10;77.30;;;;;;5072090;28;20505;-91
2021/10/08 03:05:47;;;;;;;11.48;7.05;;;8.10;77.40;;;;;;5057286;28;20061;-90
2021/10/08 03:08:14;;;;;;;12.02;8.15;;;8.10;77.40;;;;;;5072866;28;20062;-89
2021/10/08 03:10:42;;;;;;;9.77;7.47;;;8.00;77.40;;;;;;5072080;28;20045;-88
2021/10/08 03:13:09;;;;;;;10.25;7.00;;;8.00;77.40;;;;;;5070962;28;20116;-90
2021/10/08 03:15:37;;;;;;;10.57;7.85;;;8.00;77.40;;;;;;5072238;28;20056;-91
2021/10/08 03:18:04;;;;;;;11.27;7.13;;;8.00;77.30;;;;;;5071750;28;20059;-90
2021/10/08 03:20:32;;;;;;;10.00;7.47;;;8.00;77.30;;;;;;5073396;28;20055;-89
2021/10/08 03:22:59;;;;;;;10.63;7.03;;;7.90;77.30;;;;;;5073389;28;20412;-89
2021/10/08 03:25:26;;;;;;;11.93;7.70;;;8.00;77.30;;;;;;5071487;28;20433;-92
2021/10/08 03:27:53;;;;;;;10.60;7.90;;;7.90;77.30;;;;;;5073299;28;20515;-91
2021/10/08 03:30:20;;;;;;;10.27;7.35;;;7.90;77.30;;;;;;5073573;28;20059;-90
2021/10/08 03:32:47;;;;;;;11.48;8.65;;;7.90;77.30;;;;;;5071815;28;20056;-89
2021/10/08 03:35:15;;;;;;;10.13;7.97;;;7.90;77.40;;;;;;5072680;28;20063;-89
2021/10/08 03:40:30;;;;;;;8.70;7.00;;;7.90;77.40;;;;;;5072720;28;20455;-89
2021/10/08 03:43:00;;;;;;;10.63;7.60;;;7.90;77.40;;;;;;5068222;28;20523;-89
2021/10/08 03:45:42;;;;;;;11.10;9.13;;;7.90;77.50;;;;;;5072595;28;20427;-91
2021/10/08 03:50:58;;;;;;;10.68;7.70;;;7.80;77.70;;;;;;5072636;28;20045;-91
2021/10/08 03:53:26;;;;;;;10.02;7.10;;;7.80;77.70;;;;;;5072701;28;20053;-90
2021/10/08 03:55:52;;;;;;;10.25;8.40;;;7.80;77.70;;;;;;5071971;28;20059;-90
2021/10/08 03:58:20;;;;;;;12.13;8.18;;;7.80;77.80;;;;;;5072498;28;20058;-93
2021/10/08 04:00:47;;;;;;;14.13;8.70;;;7.80;77.80;;;;;;5070210;28;20058;-89
2021/10/08 04:03:14;;;;;;;9.32;7.55;;;7.70;77.70;;;;;;5072553;28;20136;-89
2021/10/08 04:05:42;;;;;;;10.10;8.25;;;7.70;77.70;;;;;;5072714;28;20062;-89
2021/10/08 04:08:09;;;;;;;10.85;8.07;;;7.70;77.60;;;;;;5071603;28;20044;-90
2021/10/08 04:10:36;;;;;;;12.70;9.50;;;7.70;77.60;;;;;;5071304;28;20539;-90
2021/10/08 04:13:03;;;;;;;13.93;8.43;;;7.70;77.60;;;;;;5072522;28;20044;-91
2021/10/08 04:15:30;;;;;;;11.77;8.07;;;7.70;77.60;;;;;;5071062;28;20083;-89
2021/10/08 04:17:57;;;;;;;11.85;8.93;;;7.70;77.70;;;;;;5072168;28;20049;-90
2021/10/08 04:20:25;;;;;;;13.63;9.80;;;7.60;77.70;;;;;;5071556;28;20083;-88
2021/10/08 04:22:52;;;;;;;10.32;8.88;;;7.60;77.80;;;;;;5072800;28;20053;-91
2021/10/08 04:25:19;;;;;;;14.82;9.32;;;7.60;77.80;;;;;;5071229;28;20055;-90
2021/10/08 04:27:46;;;;;;;14.80;10.32;;;7.60;77.90;;;;;;5070664;28;20068;-89
2021/10/08 04:30:13;;;;;;;13.63;9.30;;;7.50;77.90;;;;;;5071702;28;20054;-90
2021/10/08 04:32:40;;;;;;;11.55;8.35;;;7.60;78.10;;;;;;5072265;28;20049;-90
2021/10/08 04:35:07;;;;;;;11.45;8.82;;;7.60;78.00;;;;;;5071555;28;20394;-89
2021/10/08 04:37:35;;;;;;;12.48;9.68;;;7.50;78.00;;;;;;5071020;28;20059;-89
2021/10/08 04:40:02;;;;;;;16.42;11.23;;;7.50;78.00;;;;;;5069838;28;20037;-91
2021/10/08 04:42:29;;;;;;;12.32;8.95;;;7.50;78.00;;;;;;5071199;28;20098;-89
2021/10/08 04:44:56;;;;;;;13.05;9.10;;;7.50;78.00;;;;;;5072237;28;20051;-91
2021/10/08 04:47:23;;;;;;;13.77;10.35;;;7.50;78.00;;;;;;5071007;28;20052;-90
2021/10/08 04:49:50;;;;;;;11.43;9.70;;;7.50;78.00;;;;;;5071583;28;20048;-91
2021/10/08 04:52:18;;;;;;;11.73;10.38;;;7.40;78.00;;;;;;5071145;28;20040;-90
2021/10/08 04:54:45;;;;;;;13.23;10.10;;;7.40;78.00;;;;;;5072207;28;20066;-91
2021/10/08 04:57:12;;;;;;;11.73;9.07;;;7.40;78.10;;;;;;5070641;28;20048;-91
2021/10/08 04:59:39;;;;;;;12.70;9.73;;;7.40;78.10;;;;;;5072046;28;20539;-92
2021/10/08 05:02:06;;;;;;;13.68;9.65;;;7.40;78.10;;;;;;5071774;28;20068;-90
2021/10/08 05:04:33;;;;;;;13.15;10.15;;;7.40;78.10;;;;;;5068114;28;20044;-89
2021/10/08 05:07:00;;;;;;;13.75;11.10;;;7.40;78.10;;;;;;5070331;28;20489;-90
2021/10/08 05:09:27;;;;;;;18.60;10.68;;;7.40;78.10;;;;;;5071146;28;20061;-92
2021/10/08 05:11:54;;;;;;;14.73;10.55;;;7.40;78.20;;;;;;5071535;28;20051;-90
2021/10/08 05:14:21;;;;;;;19.30;12.15;;;7.40;78.30;;;;;;5072333;28;20053;-90
2021/10/08 05:16:48;;;;;;;21.05;12.30;;;7.40;78.30;;;;;;5072433;28;20072;-91
2021/10/08 05:19:15;;;;;;;17.20;12.38;;;7.40;78.40;;;;;;5072767;28;20080;-88
2021/10/08 05:21:42;;;;;;;17.92;10.30;;;7.40;78.50;;;;;;5071791;28;20059;-90
2021/10/08 05:24:09;;;;;;;21.05;13.75;;;7.40;78.50;;;;;;5071417;28;20057;-90
2021/10/08 05:26:36;;;;;;;18.67;13.20;;;7.30;78.50;;;;;;5071656;28;20060;-90
2021/10/08 05:29:05;;;;;;;22.08;14.15;;;7.30;78.60;;;;;;5072410;28;20052;-90
2021/10/08 05:31:33;;;;;;;19.23;13.73;;;7.30;78.60;;;;;;5071564;28;20409;-90
2021/10/08 05:34:00;;;;;;;21.02;15.23;;;7.30;78.60;;;;;;5071430;28;20408;-91
2021/10/08 05:36:27;;;;;;;22.88;14.57;;;7.30;78.70;;;;;;5072645;28;20064;-91
2021/10/08 05:38:54;;;;;;;24.33;14.90;;;7.30;78.80;;;;;;5071747;28;20056;-90
2021/10/08 05:41:21;;;;;;;22.35;14.65;;;7.30;78.80;;;;;;5075887;28;20528;-90
2021/10/08 05:43:48;;;;;;;26.95;15.63;;;7.30;78.80;;;;;;5075715;28;20067;-90
2021/10/08 05:46:15;;;;;;;24.40;16.60;;;7.30;78.90;;;;;;5075957;28;20048;-91
2021/10/08 05:48:42;;;;;;;27.13;17.75;;;7.30;78.90;;;;;;5075594;28;20078;-95
2021/10/08 05:51:09;;;;;;;20.08;14.68;;;7.30;79.00;;;;;;5076453;28;20401;-92
2021/10/08 05:53:36;;;;;;;23.73;16.63;;;7.30;79.10;;;;;;5076222;28;20063;-91
2021/10/08 05:56:04;;;;;;;24.00;16.27;;;7.20;79.10;;;;;;5076163;28;20059;-91
2021/10/08 05:58:31;;;;;;;24.83;17.38;;;7.30;79.20;;;;;;5075848;28;20067;-91
2021/10/08 06:00:58;;;;;;;22.40;15.95;;;7.30;79.20;;;;;;5075737;28;20045;-90
2021/10/08 06:03:25;;;;;;;23.23;16.00;;;7.30;79.20;;;;;;5075818;28;20056;-91
2021/10/08 06:05:52;;;;;;;28.98;17.15;;;7.20;79.20;;;;;;5075958;28;20044;-91
2021/10/08 06:08:19;;;;;;;22.88;15.95;;;7.30;79.20;;;;;;5075557;28;20556;-91
2021/10/08 06:10:46;;;;;;;19.98;15.15;;;7.20;79.20;;;;;;5075870;28;20056;-91
2021/10/08 06:13:14;;;;;;;22.10;16.25;;;7.30;79.30;;;;;;5075576;28;20087;-85
2021/10/08 06:15:41;;;;;;;20.98;15.43;;;7.30;79.30;;;;;;5073518;28;20932;-86
2021/10/08 06:18:08;;;;;;;20.75;13.68;;;7.30;79.40;;;;;;5071168;28;20052;-86
2021/10/08 06:20:35;;;;;;;27.80;18.88;;;7.30;79.40;;;;;;5074186;28;20044;-87
2021/10/08 06:23:02;;;;;;;22.98;16.13;;;7.30;79.40;;;;;;5074576;28;20048;-87
2021/10/08 06:25:29;;;;;;;23.67;16.75;;;7.30;79.40;;;;;;5072743;28;20049;-86
2021/10/08 06:27:56;;;;;;;28.95;19.30;;;7.30;79.40;;;;;;5074225;28;20040;-86
2021/10/08 06:30:24;;;;;;;35.47;22.88;;;7.30;79.50;;;;;;5073674;28;20459;-86
2021/10/08 06:32:51;;;;;;;35.25;25.40;;;7.30;79.60;;;;;;5072901;28;20044;-86
2021/10/08 06:35:17;;;;;;;35.25;25.25;;;7.40;79.70;;;;;;5074161;28;20056;-87
2021/10/08 06:37:44;;;;;;;24.02;17.65;;;7.30;79.70;;;;;;5073432;28;20060;-88
2021/10/08 06:40:12;;;;;;;31.42;22.83;;;7.40;79.80;;;;;;5073405;28;20082;-86
2021/10/08 06:42:40;;;;;;;25.65;20.75;;;7.40;79.80;;;;;;5074298;28;20052;-88
2021/10/08 06:45:08;;;;;;;22.70;18.42;;;7.40;79.90;;;;;;5074311;28;20125;-87
2021/10/08 06:47:35;;;;;;;25.25;20.90;;;7.40;80.00;;;;;;5074082;28;20098;-88
2021/10/08 06:50:03;;;;;;;26.60;20.83;;;7.40;80.10;;;;;;5074433;28;20044;-85
2021/10/08 06:52:29;;;;;;;24.48;17.30;;;7.40;80.20;;;;;;5072862;28;20040;-86
2021/10/08 06:54:56;;;;;;;28.50;20.70;;;7.50;80.30;;;;;;5073866;28;20101;-86
2021/10/08 06:57:24;;;;;;;28.27;20.38;;;7.50;80.40;;;;;;5073973;28;20044;-85
2021/10/08 06:59:52;;;;;;;38.95;26.15;;;7.50;80.50;;;;;;5073740;28;20044;-86
2021/10/08 07:02:19;;;;;;;57.25;26.02;;;7.50;80.60;;;;;;5074201;28;20456;-87
2021/10/08 07:04:46;;;;;;;48.00;25.33;;;7.50;80.70;;;;;;5074199;28;20505;-84
2021/10/08 07:07:13;;;;;;;33.00;24.17;;;7.60;80.80;;;;;;5073475;28;20448;-86
2021/10/08 07:09:39;;;;;;;41.38;27.90;;;7.60;81.00;;;;;;5073380;28;20044;-87
2021/10/08 07:12:06;;;;;;;37.25;24.67;;;7.60;81.10;;;;;;5073625;28;20044;-85
2021/10/08 07:14:33;;;;;;;30.52;21.88;;;7.70;81.10;;;;;;5073421;28;20052;-86
2021/10/08 07:17:00;;;;;;;58.30;26.88;;;7.70;81.20;;;;;;5074283;28;20094;-85
2021/10/08 07:19:28;;;;;;;45.33;23.35;;;7.70;81.30;;;;;;5073426;28;20048;-86
2021/10/08 07:21:55;;;;;;;34.10;22.75;;;7.80;81.50;;;;;;5073246;28;20037;-86
2021/10/08 07:24:22;;;;;;;33.42;20.73;;;7.80;81.60;;;;;;5072934;28;20056;-87
2021/10/08 07:26:49;;;;;;;29.95;18.92;;;7.90;81.80;;;;;;5073478;28;20501;-87
2021/10/08 07:29:16;;;;;;;47.65;22.67;;;7.90;81.90;;;;;;5073527;28;20098;-89
2021/10/08 07:31:43;;;;;;;39.65;21.23;;;8.00;82.00;;;;;;5073387;28;20456;-88
2021/10/08 07:34:10;;;;;;;45.42;26.67;;;8.00;82.10;;;;;;5073940;28;20425;-90
2021/10/08 07:36:37;;;;;;;22.52;16.65;;;8.00;82.20;;;;;;5072145;28;20052;-89
2021/10/08 07:39:04;;;;;;;25.27;17.52;;;8.10;82.40;;;;;;5072930;28;20102;-89
2021/10/08 07:41:31;;;;;;;70.88;26.55;;;8.20;82.40;;;;;;5073482;28;20105;-87
2021/10/08 07:43:58;;;;;;;63.38;27.15;;;8.30;82.40;;;;;;5073380;28;20505;-88
2021/10/08 07:46:25;;;;;;;34.88;22.73;;;8.30;82.50;;;;;;5068545;28;20040;-88
2021/10/08 07:48:52;;;;;;;36.10;23.85;;;8.40;82.60;;;;;;5075616;28;20124;-88
2021/10/08 07:51:19;;;;;;;33.92;21.98;;;8.40;82.80;;;;;;5073053;28;20105;-87
2021/10/08 07:53:46;;;;;;;36.90;24.98;;;8.40;82.90;;;;;;5069423;28;20072;-86
2021/10/08 07:56:13;;;;;;;39.80;26.83;;;8.50;83.00;;;;;;5077669;28;20053;-86
2021/10/08 07:58:41;;;;;;;33.75;24.83;;;8.60;83.10;;;;;;5072998;28;20048;-86
2021/10/08 08:01:08;;;;;;;46.92;27.67;;;8.70;83.30;;;;;;5073335;28;20041;-87
2021/10/08 08:03:35;;;;;;;49.28;27.65;;;8.70;83.30;;;;;;5071836;28;20463;-86
2021/10/08 08:06:02;;;;;;;49.33;29.38;;;8.80;83.40;;;;;;5070296;28;20501;-87
2021/10/08 08:08:29;;;;;;;60.42;31.17;;;8.90;83.50;;;;;;5072991;28;20048;-87
2021/10/08 08:10:56;;;;;;;46.47;29.75;;;8.90;83.60;;;;;;5075052;28;20056;-87
2021/10/08 08:13:23;;;;;;;43.80;26.65;;;9.00;83.70;;;;;;5077436;28;20492;-86
2021/10/08 08:15:50;;;;;;;58.75;31.38;;;9.00;83.80;;;;;;5080718;28;20089;-88
2021/10/08 08:18:17;;;;;;;50.75;28.20;;;9.10;83.90;;;;;;5072720;28;20412;-87
2021/10/08 08:20:44;;;;;;;40.33;25.95;;;9.20;83.90;;;;;;5069007;28;20056;-86
2021/10/08 08:23:11;;;;;;;37.22;24.20;;;9.20;84.00;;;;;;5076494;28;20461;-87
2021/10/08 08:25:40;;;;;;;46.80;28.38;;;9.30;84.00;;;;;;5072808;28;20118;-86
2021/10/08 08:28:07;;;;;;;54.80;28.80;;;9.40;84.10;;;;;;5074193;28;20102;-87
2021/10/08 08:30:38;;;;;;;31.85;22.25;;;9.40;84.10;;;;;;5072560;28;20055;-86
2021/10/08 08:33:05;;;;;;;41.58;27.70;;;9.40;84.10;;;;;;5070369;28;20060;-85
2021/10/08 08:35:33;;;;;;;34.55;24.75;;;9.50;84.10;;;;;;5072720;28;20067;-87
2021/10/08 08:37:59;;;;;;;35.53;25.80;;;9.50;84.10;;;;;;5075879;28;20044;-87
2021/10/08 08:40:29;;;;;;;66.30;31.60;;;9.60;84.10;;;;;;5074925;28;20045;-86
2021/10/08 08:42:58;;;;;;;41.33;26.80;;;9.70;84.10;;;;;;5072831;28;20048;-86
2021/10/08 08:45:26;;;;;;;40.00;26.20;;;9.70;84.20;;;;;;5072586;28;20416;-86
2021/10/08 08:48:04;;;;;;;49.95;31.73;;;9.80;84.20;;;;;;5067572;28;20053;-85
2021/10/08 08:50:34;;;;;;;40.15;25.67;;;9.90;84.30;;;;;;5071326;28;20094;-87
2021/10/08 08:53:01;;;;;;;71.57;37.67;;;9.90;84.30;;;;;;5074495;28;20125;-87
2021/10/08 08:55:29;;;;;;;56.47;31.25;;;9.90;84.30;;;;;;5071944;28;20080;-87
2021/10/08 08:57:56;;;;;;;49.97;31.40;;;10.00;84.40;;;;;;5070959;28;20045;-87
2021/10/08 09:00:24;;;;;;;67.93;33.33;;;10.10;84.50;;;;;;5071873;28;20051;-90
2021/10/08 09:03:00;;;;;;;57.10;32.13;;;10.20;84.40;;;;;;5068231;28;20496;-86
2021/10/08 09:05:30;;;;;;;59.20;36.13;;;10.30;84.50;;;;;;5072619;28;20055;-86
2021/10/08 09:08:04;;;;;;;54.92;35.42;;;10.30;84.50;;;;;;5075906;28;20070;-86
2021/10/08 09:10:37;;;;;;;66.82;37.13;;;10.40;84.50;;;;;;5071904;28;20048;-85
2021/10/08 09:13:04;;;;;;;62.83;37.00;;;10.40;84.50;;;;;;5072661;28;20501;-86
2021/10/08 09:15:48;;;;;;;57.63;35.55;;;10.50;84.50;;;;;;5081728;28;20048;-87
2021/10/08 09:18:18;;;;;;;65.60;38.40;;;10.50;84.50;;;;;;5074060;28;20075;-86
2021/10/08 09:21:13;;;;;;;48.85;32.58;;;10.60;84.50;;;;;;5067945;28;20048;-86
2021/10/08 09:23:46;;;;;;;56.15;33.13;;;10.60;84.40;;;;;;5084774;28;20471;-86
2021/10/08 09:26:25;;;;;;;60.47;33.92;;;10.70;84.40;;;;;;5082041;28;20093;-87
2021/10/08 09:28:58;;;;;;;69.50;39.30;;;10.70;84.40;;;;;;5072940;28;20048;-86
2021/10/08 09:31:43;;;;;;;79.68;43.08;;;10.80;84.40;;;;;;5071544;28;20048;-86
2021/10/08 09:34:21;;;;;;;75.68;41.15;;;10.80;84.40;;;;;;5077924;28;20101;-87
2021/10/08 09:36:55;;;;;;;85.68;45.60;;;10.90;84.60;;;;;;5079698;28;20049;-86
2021/10/08 09:39:30;;;;;;;77.05;42.95;;;11.00;84.70;;;;;;5071835;28;20044;-87
2021/10/08 09:42:02;;;;;;;69.45;38.70;;;11.10;84.70;;;;;;5068393;28;20090;-88
2021/10/08 09:44:32;;;;;;;59.97;34.30;;;11.10;84.60;;;;;;5072600;28;20105;-87
2021/10/08 09:47:20;;;;;;;82.88;41.67;;;11.20;84.70;;;;;;5072892;28;20102;-86
2021/10/08 09:49:49;;;;;;;78.53;43.38;;;11.30;84.70;;;;;;5072808;28;20044;-90
2021/10/08 09:52:30;;;;;;;79.60;42.78;;;11.40;84.80;;;;;;5075543;28;20120;-89
2021/10/08 09:54:58;;;;;;;66.22;38.88;;;11.50;84.70;;;;;;5072134;28;20102;-88
2021/10/08 09:57:27;;;;;;;85.15;45.35;;;11.70;84.80;;;;;;5071681;28;20463;-89
2021/10/08 09:59:55;;;;;;;88.25;48.47;;;11.80;84.80;;;;;;5068178;28;20053;-88
2021/10/08 10:02:22;;;;;;;57.25;38.00;;;11.90;84.80;;;;;;5073987;28;20052;-89
2021/10/08 10:04:51;;;;;;;78.63;40.45;;;12.10;84.80;;;;;;5072500;28;20052;-87
2021/10/08 10:07:21;;;;;;;67.47;40.45;;;12.30;84.70;;;;;;5072158;28;20040;-89
2021/10/08 10:09:49;;;;;;;66.93;40.90;;;12.40;84.60;;;;;;5073333;28;20508;-92
2021/10/08 10:12:35;;;;;;;47.03;28.83;;;12.50;84.40;;;;;;5069808;28;20044;-89
2021/10/08 10:15:03;;;;;;;60.63;35.03;;;12.70;84.10;;;;;;5083581;28;20049;-90
2021/10/08 10:17:30;;;;;;;52.60;32.72;;;12.90;84.10;;;;;;5071774;28;20467;-91
2021/10/08 10:19:58;;;;;;;52.92;34.30;;;13.10;84.10;;;;;;5073162;28;20566;-93
2021/10/08 10:22:26;;;;;;;48.78;32.22;;;13.20;83.70;;;;;;5071353;28;20066;-89
2021/10/08 10:24:54;;;;;;;57.85;35.08;;;13.40;83.40;;;;;;5070538;28;20052;-90
2021/10/08 10:27:21;;;;;;;55.35;34.13;;;13.60;83.10;;;;;;5075173;28;20047;-88
2021/10/08 10:29:49;;;;;;;45.40;29.17;;;13.80;83.00;;;;;;5053928;28;20048;-85
2021/10/08 10:32:16;;;;;;;40.92;28.27;;;13.90;82.70;;;;;;5086368;28;20097;-86
2021/10/08 10:34:43;;;;;;;45.05;28.88;;;14.10;82.30;;;;;;5074600;28;20049;-85
2021/10/08 10:37:10;;;;;;;44.45;27.75;;;14.30;81.80;;;;;;5075040;28;20048;-88
2021/10/08 10:39:38;;;;;;;40.38;25.92;;;14.40;81.30;;;;;;5075048;28;20059;-87
2021/10/08 10:42:12;;;;;;;50.28;28.02;;;14.60;80.70;;;;;;5072582;28;20044;-87
2021/10/08 10:45:08;;;;;;;32.60;22.20;;;14.80;80.10;;;;;;5072940;28;20624;-85
2021/10/08 10:47:37;;;;;;;41.53;23.67;;;14.90;79.50;;;;;;5086200;28;20052;-85
2021/10/08 10:51:09;;;;;;;28.23;22.05;;;15.10;78.60;;;;;;5076179;28;20052;-86
2021/10/08 10:53:02;;;;;;;29.38;20.13;;;15.20;78.00;;;;;;5075442;28;20044;-85
2021/10/08 10:55:33;;;;;;;31.75;20.38;;;15.40;77.30;;;;;;5074301;28;20048;-85
2021/10/08 10:58:07;;;;;;;34.35;19.05;;;15.50;77.00;;;;;;5075116;28;20044;-85
2021/10/08 11:00:36;;;;;;;;;;;15.60;76.30;;;;;;5074039;28;20064;-85
2021/10/08 11:03:12;;;;;;;36.95;18.30;;;15.70;75.40;;;;;;5072637;28;19972;-85
2021/10/08 11:06:08;;;;;;;28.27;16.33;;;15.80;74.70;;;;;;5071364;28;20060;-86
2021/10/08 11:09:09;;;;;;;33.70;17.55;;;15.90;74.20;;;;;;5080257;28;20040;-85
2021/10/08 11:11:38;;;;;;;31.17;17.40;;;15.90;73.70;;;;;;5085431;28;20074;-86
2021/10/08 11:14:19;;;;;;;28.08;15.90;;;16.00;73.20;;;;;;5076034;28;20102;-84
2021/10/08 11:16:47;;;;;;;34.45;17.42;;;16.10;73.30;;;;;;5075176;28;20463;-84
2021/10/08 11:19:37;;;;;;;36.70;18.25;;;16.20;73.30;;;;;;5072943;28;20102;-87
2021/10/08 11:22:05;;;;;;;40.17;18.40;;;16.30;72.90;;;;;;5073074;28;20048;-85
2021/10/08 11:24:32;;;;;;;33.92;16.67;;;16.40;72.60;;;;;;5073013;28;20550;-84
2021/10/08 11:27:01;;;;;;;36.17;16.75;;;16.40;72.90;;;;;;5069797;28;20091;-85
2021/10/08 11:29:33;;;;;;;34.13;16.55;;;16.60;72.80;;;;;;5073180;28;20498;-85
2021/10/08 11:32:08;;;;;;;36.08;15.15;;;16.60;72.10;;;;;;5074582;28;20488;-85
2021/10/08 11:34:48;;;;;;;34.92;13.73;;;16.70;71.60;;;;;;5072625;28;20052;-86
2021/10/08 11:37:15;;;;;;;39.63;15.75;;;16.80;71.40;;;;;;5072413;28;20044;-84
2021/10/08 11:39:43;;;;;;;33.53;14.32;;;16.90;71.40;;;;;;5072749;28;20488;-87
2021/10/08 11:42:15;;;;;;;36.30;13.23;;;16.90;71.30;;;;;;5072718;28;20052;-85
2021/10/08 11:45:02;;;;;;;34.08;12.02;;;17.00;71.20;;;;;;5069465;28;20103;-85
2021/10/08 11:52:58;;;;;;;40.65;12.55;;;17.40;69.30;;;;;;5076079;28;20078;-85
2021/10/08 11:55:27;;;;;;;46.25;12.98;;;17.40;69.60;;;;;;5072435;28;20052;-85
2021/10/08 11:58:04;;;;;;;64.28;14.90;;;17.50;69.40;;;;;;5072112;28;20447;-86
2021/10/08 12:00:37;;;;;;;68.85;15.18;;;17.60;69.30;;;;;;5072159;28;20125;-84
2021/10/08 12:03:09;;;;;;;78.95;16.08;;;17.70;69.00;;;;;;5069981;28;20045;-85
2021/10/08 12:05:40;;;;;;;75.60;15.38;;;17.70;68.80;;;;;;5070975;28;20052;-84
2021/10/08 12:08:11;;;;;;;62.10;14.90;;;17.80;68.20;;;;;;5075276;28;20041;-85
2021/10/08 12:10:38;;;;;;;74.18;14.23;;;17.90;68.30;;;;;;5071899;28;20550;-86
2021/10/08 12:13:05;;;;;;;74.90;16.33;;;17.90;67.00;;;;;;5073605;28;20060;-85
2021/10/08 12:15:34;;;;;;;85.20;15.35;;;17.90;66.50;;;;;;5071793;28;20052;-85
2021/10/08 12:18:03;;;;;;;90.75;16.48;;;17.90;66.70;;;;;;5069016;28;20480;-86
2021/10/08 12:20:33;;;;;;;91.90;19.08;;;18.00;67.10;;;;;;5071912;28;20059;-86
2021/10/08 12:23:21;;;;;;;80.22;15.93;;;18.00;66.90;;;;;;5073960;28;20074;-85
2021/10/08 12:25:53;;;;;;;79.97;17.23;;;18.00;66.70;;;;;;5071712;28;20056;-85
2021/10/08 12:28:22;;;;;;;80.90;17.75;;;18.10;66.90;;;;;;5071159;28;20482;-86
2021/10/08 12:31:09;;;;;;;79.07;16.63;;;18.10;67.00;;;;;;5071512;28;20048;-85
2021/10/08 12:33:38;;;;;;;57.30;13.90;;;18.20;67.20;;;;;;5071504;28;20528;-85
2021/10/08 12:36:20;;;;;;;59.40;13.50;;;18.30;66.80;;;;;;5069174;28;20048;-84
2021/10/08 12:39:10;;;;;;;57.92;14.18;;;18.40;66.30;;;;;;5067536;28;20113;-86
2021/10/08 12:41:49;;;;;;;59.95;12.82;;;18.40;66.40;;;;;;5083896;28;20052;-85
2021/10/08 12:44:23;;;;;;;53.53;12.07;;;18.40;65.70;;;;;;5082652;28;20189;-86
2021/10/08 12:49:53;;;;;;;43.97;11.75;;;18.40;64.60;;;;;;5070751;28;20048;-84
2021/10/08 12:52:41;;;;;;;49.58;11.75;;;18.50;65.20;;;;;;5071411;28;20122;-85
2021/10/08 12:55:19;;;;;;;42.85;10.57;;;18.50;65.20;;;;;;5071136;28;20048;-85
2021/10/08 12:58:10;;;;;;;42.85;10.85;;;18.60;65.20;;;;;;5070758;28;20040;-85
2021/10/08 13:00:51;;;;;;;46.72;13.45;;;18.70;64.70;;;;;;5072783;28;20498;-86
2021/10/08 13:03:40;;;;;;;38.92;11.10;;;18.70;64.40;;;;;;5071503;28;20079;-84